Tunker, Indiana
Current Conditions -  °F | °C
As of 5:55 PM on Tuesday 25 Nov 2014 (Local Time) from KHHG Reporting Station
Overcast Overcast  
Wind Chill: 20°   Ceiling: 1600
Heat Index: 26°   Visibility: 10mi
Dew Point: 21°   Wind: 5mph
Humidity: 81%   Direction: 250°WSW
Pressure: 30.15"   Gusts: NA
Location:  41.056°N, 85.6112°W
Report Text: KHHG 252255Z AUTO 25004KT 10SM OVC016 M03/M06 A3015 RMK AO2 T10351063
Loading
Personal Weather Stations






























Interactive Weather Map New forecast layout! Learn more

10-Day Weather Forecast

Advertisements
Track Severe Weather on mobile